sensor_id;sensor_type;location;lat;lon;timestamp;P1;durP1;ratioP1;P2;durP2;ratioP2
43184;SDS011;28803;52.308;19.096;2023-04-06T00:01:42;21.02;;;10.23;;
43184;SDS011;28803;52.308;19.096;2023-04-06T00:04:09;26.65;;;9.40;;
43184;SDS011;28803;52.308;19.096;2023-04-06T00:06:37;21.13;;;9.90;;
43184;SDS011;28803;52.308;19.096;2023-04-06T00:09:04;24.23;;;10.07;;
43184;SDS011;28803;52.308;19.096;2023-04-06T00:11:32;24.70;;;10.60;;
43184;SDS011;28803;52.308;19.096;2023-04-06T00:13:59;23.33;;;9.73;;
43184;SDS011;28803;52.308;19.096;2023-04-06T00:16:26;22.27;;;9.85;;
43184;SDS011;28803;52.308;19.096;2023-04-06T00:18:56;22.73;;;9.55;;
43184;SDS011;28803;52.308;19.096;2023-04-06T00:21:23;24.80;;;10.77;;
43184;SDS011;28803;52.308;19.096;2023-04-06T00:23:52;27.67;;;12.23;;
43184;SDS011;28803;52.308;19.096;2023-04-06T00:26:19;21.65;;;9.75;;
43184;SDS011;28803;52.308;19.096;2023-04-06T00:28:46;24.80;;;10.50;;
43184;SDS011;28803;52.308;19.096;2023-04-06T00:31:13;25.15;;;10.27;;
43184;SDS011;28803;52.308;19.096;2023-04-06T00:33:41;22.58;;;10.90;;
43184;SDS011;28803;52.308;19.096;2023-04-06T00:36:08;22.15;;;11.13;;
43184;SDS011;28803;52.308;19.096;2023-04-06T00:38:35;18.83;;;9.50;;
43184;SDS011;28803;52.308;19.096;2023-04-06T00:41:03;27.17;;;11.02;;
43184;SDS011;28803;52.308;19.096;2023-04-06T00:43:32;21.50;;;10.90;;
43184;SDS011;28803;52.308;19.096;2023-04-06T00:45:59;24.08;;;10.63;;
43184;SDS011;28803;52.308;19.096;2023-04-06T00:48:26;32.05;;;11.00;;
43184;SDS011;28803;52.308;19.096;2023-04-06T00:50:53;29.73;;;12.23;;
43184;SDS011;28803;52.308;19.096;2023-04-06T00:53:20;27.35;;;11.52;;
43184;SDS011;28803;52.308;19.096;2023-04-06T00:55:48;22.40;;;11.00;;
43184;SDS011;28803;52.308;19.096;2023-04-06T00:58:15;27.52;;;10.98;;
43184;SDS011;28803;52.308;19.096;2023-04-06T01:00:42;24.02;;;10.95;;
43184;SDS011;28803;52.308;19.096;2023-04-06T01:03:09;25.00;;;11.48;;
43184;SDS011;28803;52.308;19.096;2023-04-06T01:05:37;26.70;;;11.90;;
43184;SDS011;28803;52.308;19.096;2023-04-06T01:08:07;29.23;;;11.15;;
43184;SDS011;28803;52.308;19.096;2023-04-06T01:10:34;19.65;;;9.23;;
43184;SDS011;28803;52.308;19.096;2023-04-06T01:13:01;35.15;;;13.55;;
43184;SDS011;28803;52.308;19.096;2023-04-06T01:15:29;41.08;;;13.48;;
43184;SDS011;28803;52.308;19.096;2023-04-06T01:17:57;41.67;;;14.93;;
43184;SDS011;28803;52.308;19.096;2023-04-06T01:20:24;41.40;;;15.45;;
43184;SDS011;28803;52.308;19.096;2023-04-06T01:22:51;52.88;;;16.15;;
43184;SDS011;28803;52.308;19.096;2023-04-06T01:25:18;35.90;;;14.65;;
43184;SDS011;28803;52.308;19.096;2023-04-06T01:27:46;30.40;;;12.48;;
43184;SDS011;28803;52.308;19.096;2023-04-06T01:30:13;26.55;;;11.02;;
43184;SDS011;28803;52.308;19.096;2023-04-06T01:32:40;25.92;;;11.88;;
43184;SDS011;28803;52.308;19.096;2023-04-06T01:35:08;39.83;;;14.43;;
43184;SDS011;28803;52.308;19.096;2023-04-06T01:37:36;59.05;;;18.40;;
43184;SDS011;28803;52.308;19.096;2023-04-06T01:40:03;49.40;;;17.60;;
43184;SDS011;28803;52.308;19.096;2023-04-06T01:42:31;39.70;;;14.82;;
43184;SDS011;28803;52.308;19.096;2023-04-06T01:44:59;32.85;;;11.70;;
43184;SDS011;28803;52.308;19.096;2023-04-06T01:47:26;25.52;;;10.98;;
43184;SDS011;28803;52.308;19.096;2023-04-06T01:49:53;27.67;;;11.88;;
43184;SDS011;28803;52.308;19.096;2023-04-06T01:52:20;22.05;;;11.07;;
43184;SDS011;28803;52.308;19.096;2023-04-06T01:54:48;24.98;;;10.93;;
43184;SDS011;28803;52.308;19.096;2023-04-06T01:57:15;30.77;;;12.90;;
43184;SDS011;28803;52.308;19.096;2023-04-06T01:59:42;23.20;;;11.57;;
43184;SDS011;28803;52.308;19.096;2023-04-06T02:02:09;32.67;;;12.00;;
43184;SDS011;28803;52.308;19.096;2023-04-06T02:04:37;31.42;;;11.38;;
43184;SDS011;28803;52.308;19.096;2023-04-06T02:07:04;33.22;;;12.07;;
43184;SDS011;28803;52.308;19.096;2023-04-06T02:09:31;29.65;;;12.18;;
43184;SDS011;28803;52.308;19.096;2023-04-06T02:11:58;34.53;;;12.98;;
43184;SDS011;28803;52.308;19.096;2023-04-06T02:14:25;24.13;;;10.82;;
43184;SDS011;28803;52.308;19.096;2023-04-06T02:16:53;28.73;;;12.10;;
43184;SDS011;28803;52.308;19.096;2023-04-06T02:19:21;31.75;;;12.63;;
43184;SDS011;28803;52.308;19.096;2023-04-06T02:21:48;33.13;;;11.90;;
43184;SDS011;28803;52.308;19.096;2023-04-06T02:24:16;41.85;;;16.77;;
43184;SDS011;28803;52.308;19.096;2023-04-06T02:26:43;83.07;;;31.48;;
43184;SDS011;28803;52.308;19.096;2023-04-06T02:29:10;98.50;;;35.13;;
43184;SDS011;28803;52.308;19.096;2023-04-06T02:31:37;51.33;;;23.35;;
43184;SDS011;28803;52.308;19.096;2023-04-06T02:34:05;49.38;;;17.80;;
43184;SDS011;28803;52.308;19.096;2023-04-06T02:36:33;58.00;;;22.95;;
43184;SDS011;28803;52.308;19.096;2023-04-06T02:39:01;55.17;;;22.33;;
43184;SDS011;28803;52.308;19.096;2023-04-06T02:41:28;52.42;;;22.67;;
43184;SDS011;28803;52.308;19.096;2023-04-06T02:43:55;58.13;;;22.83;;
43184;SDS011;28803;52.308;19.096;2023-04-06T02:46:22;55.30;;;20.63;;
43184;SDS011;28803;52.308;19.096;2023-04-06T02:48:50;47.83;;;22.80;;
43184;SDS011;28803;52.308;19.096;2023-04-06T02:51:17;54.20;;;23.52;;
43184;SDS011;28803;52.308;19.096;2023-04-06T02:53:45;49.22;;;20.35;;
43184;SDS011;28803;52.308;19.096;2023-04-06T02:56:12;59.60;;;22.50;;
43184;SDS011;28803;52.308;19.096;2023-04-06T02:58:40;63.38;;;25.00;;
43184;SDS011;28803;52.308;19.096;2023-04-06T03:01:07;45.47;;;18.90;;
43184;SDS011;28803;52.308;19.096;2023-04-06T03:03:34;42.53;;;17.90;;
43184;SDS011;28803;52.308;19.096;2023-04-06T03:06:01;42.05;;;18.92;;
43184;SDS011;28803;52.308;19.096;2023-04-06T03:08:29;39.78;;;16.25;;
43184;SDS011;28803;52.308;19.096;2023-04-06T03:10:56;37.58;;;13.32;;
43184;SDS011;28803;52.308;19.096;2023-04-06T03:13:24;27.45;;;12.07;;
43184;SDS011;28803;52.308;19.096;2023-04-06T03:15:51;39.72;;;14.98;;
43184;SDS011;28803;52.308;19.096;2023-04-06T03:18:21;50.53;;;21.05;;
43184;SDS011;28803;52.308;19.096;2023-04-06T03:20:49;51.08;;;25.65;;
43184;SDS011;28803;52.308;19.096;2023-04-06T03:23:17;58.17;;;27.33;;
43184;SDS011;28803;52.308;19.096;2023-04-06T03:25:47;58.63;;;28.02;;
43184;SDS011;28803;52.308;19.096;2023-04-06T03:28:14;50.33;;;25.30;;
43184;SDS011;28803;52.308;19.096;2023-04-06T03:30:42;44.13;;;19.42;;
43184;SDS011;28803;52.308;19.096;2023-04-06T03:33:09;44.70;;;19.75;;
43184;SDS011;28803;52.308;19.096;2023-04-06T03:35:37;59.25;;;21.17;;
43184;SDS011;28803;52.308;19.096;2023-04-06T03:38:04;60.75;;;21.92;;
43184;SDS011;28803;52.308;19.096;2023-04-06T03:40:31;56.20;;;21.25;;
43184;SDS011;28803;52.308;19.096;2023-04-06T03:42:59;53.58;;;22.52;;
43184;SDS011;28803;52.308;19.096;2023-04-06T03:45:26;52.53;;;19.77;;
43184;SDS011;28803;52.308;19.096;2023-04-06T03:47:53;45.00;;;18.77;;
43184;SDS011;28803;52.308;19.096;2023-04-06T03:50:20;35.78;;;16.88;;
43184;SDS011;28803;52.308;19.096;2023-04-06T03:52:48;51.85;;;20.27;;
43184;SDS011;28803;52.308;19.096;2023-04-06T03:55:15;78.82;;;22.70;;
43184;SDS011;28803;52.308;19.096;2023-04-06T03:57:42;64.60;;;21.95;;
43184;SDS011;28803;52.308;19.096;2023-04-06T04:00:09;60.40;;;20.95;;
43184;SDS011;28803;52.308;19.096;2023-04-06T04:02:37;54.33;;;19.05;;
43184;SDS011;28803;52.308;19.096;2023-04-06T04:05:05;25.17;;;10.15;;
43184;SDS011;28803;52.308;19.096;2023-04-06T04:07:32;24.08;;;9.88;;
43184;SDS011;28803;52.308;19.096;2023-04-06T04:09:59;20.90;;;9.88;;
43184;SDS011;28803;52.308;19.096;2023-04-06T04:12:27;23.33;;;10.60;;
43184;SDS011;28803;52.308;19.096;2023-04-06T04:14:54;24.90;;;11.70;;
43184;SDS011;28803;52.308;19.096;2023-04-06T04:17:21;26.77;;;11.55;;
43184;SDS011;28803;52.308;19.096;2023-04-06T04:19:48;21.10;;;11.65;;
43184;SDS011;28803;52.308;19.096;2023-04-06T04:22:16;28.23;;;13.38;;
43184;SDS011;28803;52.308;19.096;2023-04-06T04:24:43;34.55;;;13.05;;
43184;SDS011;28803;52.308;19.096;2023-04-06T04:27:10;28.55;;;13.07;;
43184;SDS011;28803;52.308;19.096;2023-04-06T04:29:37;22.60;;;11.25;;
43184;SDS011;28803;52.308;19.096;2023-04-06T04:32:04;21.95;;;10.65;;
43184;SDS011;28803;52.308;19.096;2023-04-06T04:34:31;33.28;;;13.15;;
43184;SDS011;28803;52.308;19.096;2023-04-06T04:36:59;24.85;;;11.60;;
43184;SDS011;28803;52.308;19.096;2023-04-06T04:39:26;23.02;;;11.10;;
43184;SDS011;28803;52.308;19.096;2023-04-06T04:41:54;20.27;;;10.65;;
43184;SDS011;28803;52.308;19.096;2023-04-06T04:44:21;26.55;;;11.45;;
43184;SDS011;28803;52.308;19.096;2023-04-06T04:46:49;21.95;;;10.23;;
43184;SDS011;28803;52.308;19.096;2023-04-06T04:49:16;27.30;;;11.00;;
43184;SDS011;28803;52.308;19.096;2023-04-06T04:51:43;27.27;;;12.55;;
43184;SDS011;28803;52.308;19.096;2023-04-06T04:54:10;24.75;;;11.50;;
43184;SDS011;28803;52.308;19.096;2023-04-06T04:56:38;20.48;;;11.25;;
43184;SDS011;28803;52.308;19.096;2023-04-06T04:59:05;20.33;;;10.88;;
43184;SDS011;28803;52.308;19.096;2023-04-06T05:01:33;25.33;;;9.73;;
43184;SDS011;28803;52.308;19.096;2023-04-06T05:04:19;23.08;;;9.57;;
43184;SDS011;28803;52.308;19.096;2023-04-06T05:06:47;18.77;;;8.93;;
43184;SDS011;28803;52.308;19.096;2023-04-06T05:09:14;21.38;;;10.23;;
43184;SDS011;28803;52.308;19.096;2023-04-06T05:11:41;22.25;;;10.13;;
43184;SDS011;28803;52.308;19.096;2023-04-06T05:14:11;19.52;;;9.45;;
43184;SDS011;28803;52.308;19.096;2023-04-06T05:16:39;24.27;;;10.23;;
43184;SDS011;28803;52.308;19.096;2023-04-06T05:19:06;24.25;;;10.52;;
43184;SDS011;28803;52.308;19.096;2023-04-06T05:21:34;28.00;;;11.35;;
43184;SDS011;28803;52.308;19.096;2023-04-06T05:24:01;23.73;;;9.82;;
43184;SDS011;28803;52.308;19.096;2023-04-06T05:26:29;21.00;;;10.32;;
43184;SDS011;28803;52.308;19.096;2023-04-06T05:28:56;20.60;;;8.98;;
43184;SDS011;28803;52.308;19.096;2023-04-06T05:31:24;17.70;;;8.32;;
43184;SDS011;28803;52.308;19.096;2023-04-06T05:33:51;24.38;;;11.40;;
43184;SDS011;28803;52.308;19.096;2023-04-06T05:36:19;34.97;;;13.02;;
43184;SDS011;28803;52.308;19.096;2023-04-06T05:38:46;42.88;;;15.02;;
43184;SDS011;28803;52.308;19.096;2023-04-06T05:41:13;28.98;;;11.52;;
43184;SDS011;28803;52.308;19.096;2023-04-06T05:43:40;24.00;;;10.07;;
43184;SDS011;28803;52.308;19.096;2023-04-06T05:46:08;25.88;;;11.00;;
43184;SDS011;28803;52.308;19.096;2023-04-06T05:48:35;21.45;;;9.90;;
43184;SDS011;28803;52.308;19.096;2023-04-06T05:51:02;26.55;;;11.68;;
43184;SDS011;28803;52.308;19.096;2023-04-06T05:53:32;23.25;;;10.38;;
43184;SDS011;28803;52.308;19.096;2023-04-06T05:56:03;28.33;;;10.43;;
43184;SDS011;28803;52.308;19.096;2023-04-06T05:58:30;26.40;;;10.85;;
43184;SDS011;28803;52.308;19.096;2023-04-06T06:00:58;22.88;;;11.07;;
43184;SDS011;28803;52.308;19.096;2023-04-06T06:03:29;21.05;;;8.25;;
43184;SDS011;28803;52.308;19.096;2023-04-06T06:06:00;23.83;;;10.23;;
43184;SDS011;28803;52.308;19.096;2023-04-06T06:08:30;21.13;;;9.75;;
43184;SDS011;28803;52.308;19.096;2023-04-06T06:10:58;27.48;;;11.02;;
43184;SDS011;28803;52.308;19.096;2023-04-06T06:13:25;23.42;;;9.45;;
43184;SDS011;28803;52.308;19.096;2023-04-06T06:15:52;14.65;;;8.38;;
43184;SDS011;28803;52.308;19.096;2023-04-06T06:18:19;19.85;;;9.15;;
43184;SDS011;28803;52.308;19.096;2023-04-06T06:20:47;17.65;;;8.57;;
43184;SDS011;28803;52.308;19.096;2023-04-06T06:23:14;20.58;;;9.05;;
43184;SDS011;28803;52.308;19.096;2023-04-06T06:25:41;21.38;;;9.82;;
43184;SDS011;28803;52.308;19.096;2023-04-06T06:28:08;23.15;;;9.30;;
43184;SDS011;28803;52.308;19.096;2023-04-06T06:30:36;24.27;;;9.13;;
43184;SDS011;28803;52.308;19.096;2023-04-06T06:33:03;26.50;;;9.75;;
43184;SDS011;28803;52.308;19.096;2023-04-06T06:35:30;18.60;;;7.97;;
43184;SDS011;28803;52.308;19.096;2023-04-06T06:37:57;18.38;;;7.95;;
43184;SDS011;28803;52.308;19.096;2023-04-06T06:40:25;23.63;;;9.70;;
43184;SDS011;28803;52.308;19.096;2023-04-06T06:42:53;33.13;;;12.63;;
43184;SDS011;28803;52.308;19.096;2023-04-06T06:45:21;25.25;;;10.75;;
43184;SDS011;28803;52.308;19.096;2023-04-06T06:47:48;23.83;;;10.18;;
43184;SDS011;28803;52.308;19.096;2023-04-06T06:50:18;24.48;;;9.82;;
43184;SDS011;28803;52.308;19.096;2023-04-06T06:52:45;34.92;;;11.20;;
43184;SDS011;28803;52.308;19.096;2023-04-06T06:55:13;21.80;;;9.60;;
43184;SDS011;28803;52.308;19.096;2023-04-06T06:57:40;19.70;;;8.40;;
43184;SDS011;28803;52.308;19.096;2023-04-06T07:00:09;16.30;;;7.93;;
43184;SDS011;28803;52.308;19.096;2023-04-06T07:02:39;16.25;;;7.95;;
43184;SDS011;28803;52.308;19.096;2023-04-06T07:05:08;15.50;;;6.88;;
43184;SDS011;28803;52.308;19.096;2023-04-06T07:07:52;15.73;;;7.35;;
43184;SDS011;28803;52.308;19.096;2023-04-06T07:10:19;21.85;;;9.02;;
43184;SDS011;28803;52.308;19.096;2023-04-06T07:12:46;17.23;;;7.63;;
43184;SDS011;28803;52.308;19.096;2023-04-06T07:15:16;12.43;;;6.47;;
43184;SDS011;28803;52.308;19.096;2023-04-06T07:17:43;12.85;;;6.57;;
43184;SDS011;28803;52.308;19.096;2023-04-06T07:20:14;15.70;;;5.82;;
43184;SDS011;28803;52.308;19.096;2023-04-06T07:22:43;16.30;;;7.13;;
43184;SDS011;28803;52.308;19.096;2023-04-06T07:25:15;16.63;;;7.55;;
43184;SDS011;28803;52.308;19.096;2023-04-06T07:27:42;12.27;;;5.50;;
43184;SDS011;28803;52.308;19.096;2023-04-06T07:30:09;13.80;;;5.95;;
43184;SDS011;28803;52.308;19.096;2023-04-06T07:32:37;21.55;;;7.88;;
43184;SDS011;28803;52.308;19.096;2023-04-06T07:35:05;10.63;;;6.75;;
43184;SDS011;28803;52.308;19.096;2023-04-06T07:37:32;12.50;;;6.35;;
43184;SDS011;28803;52.308;19.096;2023-04-06T07:40:00;12.15;;;5.47;;
43184;SDS011;28803;52.308;19.096;2023-04-06T07:42:27;13.07;;;5.93;;
43184;SDS011;28803;52.308;19.096;2023-04-06T07:44:54;9.82;;;4.97;;
43184;SDS011;28803;52.308;19.096;2023-04-06T07:47:22;11.18;;;5.18;;
43184;SDS011;28803;52.308;19.096;2023-04-06T07:49:50;9.60;;;4.95;;
43184;SDS011;28803;52.308;19.096;2023-04-06T07:52:17;12.45;;;4.90;;
43184;SDS011;28803;52.308;19.096;2023-04-06T07:54:44;11.30;;;4.90;;
43184;SDS011;28803;52.308;19.096;2023-04-06T07:57:12;9.77;;;4.97;;
43184;SDS011;28803;52.308;19.096;2023-04-06T07:59:39;11.60;;;5.32;;
43184;SDS011;28803;52.308;19.096;2023-04-06T08:02:06;12.38;;;5.30;;
43184;SDS011;28803;52.308;19.096;2023-04-06T08:04:34;9.93;;;4.68;;
43184;SDS011;28803;52.308;19.096;2023-04-06T08:07:02;7.40;;;4.18;;
43184;SDS011;28803;52.308;19.096;2023-04-06T08:09:30;10.70;;;4.22;;
43184;SDS011;28803;52.308;19.096;2023-04-06T08:11:58;7.82;;;3.75;;
43184;SDS011;28803;52.308;19.096;2023-04-06T08:14:26;8.18;;;4.45;;
43184;SDS011;28803;52.308;19.096;2023-04-06T08:16:53;10.35;;;4.93;;
43184;SDS011;28803;52.308;19.096;2023-04-06T08:19:20;10.50;;;4.47;;
43184;SDS011;28803;52.308;19.096;2023-04-06T08:21:48;9.75;;;3.65;;
43184;SDS011;28803;52.308;19.096;2023-04-06T08:25:35;7.38;;;3.33;;
43184;SDS011;28803;52.308;19.096;2023-04-06T08:28:03;8.63;;;2.53;;
43184;SDS011;28803;52.308;19.096;2023-04-06T08:30:30;5.43;;;2.50;;
43184;SDS011;28803;52.308;19.096;2023-04-06T08:32:58;6.00;;;2.60;;
43184;SDS011;28803;52.308;19.096;2023-04-06T08:35:26;8.48;;;3.72;;
43184;SDS011;28803;52.308;19.096;2023-04-06T08:37:54;4.63;;;1.98;;
43184;SDS011;28803;52.308;19.096;2023-04-06T08:40:21;4.78;;;1.85;;
43184;SDS011;28803;52.308;19.096;2023-04-06T08:42:52;3.70;;;1.33;;
43184;SDS011;28803;52.308;19.096;2023-04-06T08:47:51;2.97;;;1.23;;
43184;SDS011;28803;52.308;19.096;2023-04-06T08:50:21;4.00;;;1.15;;
43184;SDS011;28803;52.308;19.096;2023-04-06T08:52:49;1.80;;;1.13;;
43184;SDS011;28803;52.308;19.096;2023-04-06T08:55:16;4.38;;;1.90;;
43184;SDS011;28803;52.308;19.096;2023-04-06T08:57:43;3.50;;;1.23;;
43184;SDS011;28803;52.308;19.096;2023-04-06T09:00:13;2.08;;;1.00;;
43184;SDS011;28803;52.308;19.096;2023-04-06T09:02:42;4.78;;;0.85;;
43184;SDS011;28803;52.308;19.096;2023-04-06T09:05:11;2.50;;;1.08;;
43184;SDS011;28803;52.308;19.096;2023-04-06T09:07:40;4.15;;;1.88;;
43184;SDS011;28803;52.308;19.096;2023-04-06T09:10:07;5.18;;;2.30;;
43184;SDS011;28803;52.308;19.096;2023-04-06T09:12:35;4.07;;;1.67;;
43184;SDS011;28803;52.308;19.096;2023-04-06T09:15:02;4.68;;;1.63;;
43184;SDS011;28803;52.308;19.096;2023-04-06T09:17:31;4.68;;;1.83;;
43184;SDS011;28803;52.308;19.096;2023-04-06T09:20:00;5.65;;;2.53;;
43184;SDS011;28803;52.308;19.096;2023-04-06T09:22:38;5.78;;;2.58;;
43184;SDS011;28803;52.308;19.096;2023-04-06T09:25:07;3.35;;;1.63;;
43184;SDS011;28803;52.308;19.096;2023-04-06T09:27:36;2.20;;;1.48;;
43184;SDS011;28803;52.308;19.096;2023-04-06T09:30:08;2.08;;;1.15;;
43184;SDS011;28803;52.308;19.096;2023-04-06T09:32:44;4.68;;;1.70;;
43184;SDS011;28803;52.308;19.096;2023-04-06T09:35:13;2.38;;;1.33;;
43184;SDS011;28803;52.308;19.096;2023-04-06T09:37:42;3.90;;;1.27;;
43184;SDS011;28803;52.308;19.096;2023-04-06T09:40:10;2.17;;;1.10;;
43184;SDS011;28803;52.308;19.096;2023-04-06T09:42:39;3.15;;;1.60;;
43184;SDS011;28803;52.308;19.096;2023-04-06T09:45:08;4.20;;;1.75;;
43184;SDS011;28803;52.308;19.096;2023-04-06T09:47:36;3.03;;;1.45;;
43184;SDS011;28803;52.308;19.096;2023-04-06T09:50:04;3.33;;;1.85;;
43184;SDS011;28803;52.308;19.096;2023-04-06T09:52:46;6.70;;;2.03;;
43184;SDS011;28803;52.308;19.096;2023-04-06T09:55:33;3.80;;;1.85;;
43184;SDS011;28803;52.308;19.096;2023-04-06T09:58:04;4.95;;;1.70;;
43184;SDS011;28803;52.308;19.096;2023-04-06T10:01:09;4.53;;;2.08;;
43184;SDS011;28803;52.308;19.096;2023-04-06T10:06:24;3.08;;;1.60;;
43184;SDS011;28803;52.308;19.096;2023-04-06T10:08:58;2.25;;;1.60;;
43184;SDS011;28803;52.308;19.096;2023-04-06T10:11:27;4.60;;;1.38;;
43184;SDS011;28803;52.308;19.096;2023-04-06T10:13:55;4.35;;;1.88;;
43184;SDS011;28803;52.308;19.096;2023-04-06T10:16:23;3.75;;;1.80;;
43184;SDS011;28803;52.308;19.096;2023-04-06T10:18:53;4.85;;;1.90;;
43184;SDS011;28803;52.308;19.096;2023-04-06T10:21:25;7.68;;;1.67;;
43184;SDS011;28803;52.308;19.096;2023-04-06T10:23:57;7.07;;;1.90;;
43184;SDS011;28803;52.308;19.096;2023-04-06T10:26:26;2.72;;;1.75;;
43184;SDS011;28803;52.308;19.096;2023-04-06T10:29:04;3.88;;;1.50;;
43184;SDS011;28803;52.308;19.096;2023-04-06T10:31:31;3.78;;;1.42;;
43184;SDS011;28803;52.308;19.096;2023-04-06T10:34:00;4.35;;;1.42;;
43184;SDS011;28803;52.308;19.096;2023-04-06T10:36:31;3.65;;;1.60;;
43184;SDS011;28803;52.308;19.096;2023-04-06T10:39:01;5.00;;;1.90;;
43184;SDS011;28803;52.308;19.096;2023-04-06T10:41:43;3.47;;;1.67;;
43184;SDS011;28803;52.308;19.096;2023-04-06T10:44:19;2.40;;;1.63;;
43184;SDS011;28803;52.308;19.096;2023-04-06T10:46:55;6.45;;;1.95;;
43184;SDS011;28803;52.308;19.096;2023-04-06T10:49:24;2.70;;;1.50;;
43184;SDS011;28803;52.308;19.096;2023-04-06T10:51:54;5.50;;;2.38;;
43184;SDS011;28803;52.308;19.096;2023-04-06T10:54:23;4.28;;;1.40;;
43184;SDS011;28803;52.308;19.096;2023-04-06T10:56:52;4.30;;;1.98;;
43184;SDS011;28803;52.308;19.096;2023-04-06T10:59:20;3.38;;;1.52;;
43184;SDS011;28803;52.308;19.096;2023-04-06T11:01:48;3.70;;;1.30;;
43184;SDS011;28803;52.308;19.096;2023-04-06T11:04:17;3.65;;;1.70;;
43184;SDS011;28803;52.308;19.096;2023-04-06T11:06:48;5.35;;;1.65;;
43184;SDS011;28803;52.308;19.096;2023-04-06T11:09:23;3.67;;;1.70;;
43184;SDS011;28803;52.308;19.096;2023-04-06T11:11:51;4.22;;;1.65;;
43184;SDS011;28803;52.308;19.096;2023-04-06T11:14:19;3.45;;;1.35;;
43184;SDS011;28803;52.308;19.096;2023-04-06T11:16:46;4.43;;;1.40;;
43184;SDS011;28803;52.308;19.096;2023-04-06T11:19:18;3.13;;;1.42;;
43184;SDS011;28803;52.308;19.096;2023-04-06T11:21:46;3.30;;;1.38;;
43184;SDS011;28803;52.308;19.096;2023-04-06T11:24:15;2.15;;;1.35;;
43184;SDS011;28803;52.308;19.096;2023-04-06T11:26:50;3.42;;;1.75;;
43184;SDS011;28803;52.308;19.096;2023-04-06T11:29:19;2.85;;;1.52;;
43184;SDS011;28803;52.308;19.096;2023-04-06T11:31:48;3.97;;;1.70;;
43184;SDS011;28803;52.308;19.096;2023-04-06T11:34:18;3.42;;;1.63;;
43184;SDS011;28803;52.308;19.096;2023-04-06T11:36:48;3.35;;;1.77;;
43184;SDS011;28803;52.308;19.096;2023-04-06T11:39:25;3.60;;;2.00;;
43184;SDS011;28803;52.308;19.096;2023-04-06T11:41:57;4.53;;;1.65;;
43184;SDS011;28803;52.308;19.096;2023-04-06T11:44:37;5.10;;;2.33;;
43184;SDS011;28803;52.308;19.096;2023-04-06T11:47:09;2.72;;;1.40;;
43184;SDS011;28803;52.308;19.096;2023-04-06T11:49:40;4.43;;;1.88;;
43184;SDS011;28803;52.308;19.096;2023-04-06T11:52:42;3.97;;;1.73;;
43184;SDS011;28803;52.308;19.096;2023-04-06T11:55:12;5.47;;;2.10;;
43184;SDS011;28803;52.308;19.096;2023-04-06T11:57:43;3.55;;;1.95;;
43184;SDS011;28803;52.308;19.096;2023-04-06T12:00:12;5.32;;;2.30;;
43184;SDS011;28803;52.308;19.096;2023-04-06T12:02:39;3.72;;;2.03;;
43184;SDS011;28803;52.308;19.096;2023-04-06T12:05:12;3.38;;;1.73;;
43184;SDS011;28803;52.308;19.096;2023-04-06T12:07:40;6.22;;;2.35;;
43184;SDS011;28803;52.308;19.096;2023-04-06T12:10:07;4.97;;;2.28;;
43184;SDS011;28803;52.308;19.096;2023-04-06T12:12:35;2.30;;;1.35;;
43184;SDS011;28803;52.308;19.096;2023-04-06T12:15:02;3.80;;;1.70;;
43184;SDS011;28803;52.308;19.096;2023-04-06T12:17:29;3.63;;;2.00;;
43184;SDS011;28803;52.308;19.096;2023-04-06T12:19:57;3.40;;;1.88;;
43184;SDS011;28803;52.308;19.096;2023-04-06T12:22:34;4.80;;;2.13;;
43184;SDS011;28803;52.308;19.096;2023-04-06T12:25:03;6.45;;;2.10;;
43184;SDS011;28803;52.308;19.096;2023-04-06T12:27:30;3.63;;;2.28;;
43184;SDS011;28803;52.308;19.096;2023-04-06T12:29:58;6.30;;;2.30;;
43184;SDS011;28803;52.308;19.096;2023-04-06T12:32:25;4.38;;;2.35;;
43184;SDS011;28803;52.308;19.096;2023-04-06T12:34:53;4.18;;;2.15;;
43184;SDS011;28803;52.308;19.096;2023-04-06T12:37:20;4.38;;;2.00;;
43184;SDS011;28803;52.308;19.096;2023-04-06T12:39:48;4.03;;;2.17;;
43184;SDS011;28803;52.308;19.096;2023-04-06T12:42:15;6.05;;;2.28;;
43184;SDS011;28803;52.308;19.096;2023-04-06T12:44:42;4.22;;;2.20;;
43184;SDS011;28803;52.308;19.096;2023-04-06T12:47:10;4.72;;;2.58;;
43184;SDS011;28803;52.308;19.096;2023-04-06T12:49:37;4.05;;;2.40;;
43184;SDS011;28803;52.308;19.096;2023-04-06T12:52:05;4.50;;;2.35;;
43184;SDS011;28803;52.308;19.096;2023-04-06T12:54:32;10.63;;;2.53;;
43184;SDS011;28803;52.308;19.096;2023-04-06T12:57:00;4.20;;;1.73;;
43184;SDS011;28803;52.308;19.096;2023-04-06T12:59:28;6.03;;;2.00;;
43184;SDS011;28803;52.308;19.096;2023-04-06T13:04:28;4.82;;;2.33;;
43184;SDS011;28803;52.308;19.096;2023-04-06T13:06:55;4.05;;;1.90;;
43184;SDS011;28803;52.308;19.096;2023-04-06T13:09:26;4.68;;;2.40;;
43184;SDS011;28803;52.308;19.096;2023-04-06T13:11:53;4.78;;;2.28;;
43184;SDS011;28803;52.308;19.096;2023-04-06T13:14:21;6.75;;;2.50;;
43184;SDS011;28803;52.308;19.096;2023-04-06T13:16:48;3.70;;;2.22;;
43184;SDS011;28803;52.308;19.096;2023-04-06T13:19:16;3.75;;;2.30;;
43184;SDS011;28803;52.308;19.096;2023-04-06T13:21:44;3.67;;;2.33;;
43184;SDS011;28803;52.308;19.096;2023-04-06T13:24:12;4.88;;;2.30;;
43184;SDS011;28803;52.308;19.096;2023-04-06T13:26:41;3.67;;;2.33;;
43184;SDS011;28803;52.308;19.096;2023-04-06T13:29:09;4.90;;;2.67;;
43184;SDS011;28803;52.308;19.096;2023-04-06T13:31:36;4.60;;;2.38;;
43184;SDS011;28803;52.308;19.096;2023-04-06T13:34:05;5.75;;;2.45;;
43184;SDS011;28803;52.308;19.096;2023-04-06T13:36:32;6.95;;;2.80;;
43184;SDS011;28803;52.308;19.096;2023-04-06T13:39:00;5.07;;;2.50;;
43184;SDS011;28803;52.308;19.096;2023-04-06T13:41:27;6.35;;;2.58;;
43184;SDS011;28803;52.308;19.096;2023-04-06T13:43:54;6.00;;;2.72;;
43184;SDS011;28803;52.308;19.096;2023-04-06T13:46:21;4.53;;;2.55;;
43184;SDS011;28803;52.308;19.096;2023-04-06T13:48:51;4.43;;;2.30;;
43184;SDS011;28803;52.308;19.096;2023-04-06T13:51:18;4.18;;;2.17;;
43184;SDS011;28803;52.308;19.096;2023-04-06T13:53:45;4.85;;;2.63;;
43184;SDS011;28803;52.308;19.096;2023-04-06T13:56:12;5.07;;;2.72;;
43184;SDS011;28803;52.308;19.096;2023-04-06T13:58:40;4.72;;;2.83;;
43184;SDS011;28803;52.308;19.096;2023-04-06T14:01:07;4.63;;;2.05;;
43184;SDS011;28803;52.308;19.096;2023-04-06T14:03:37;6.55;;;2.53;;
43184;SDS011;28803;52.308;19.096;2023-04-06T14:06:12;4.28;;;2.17;;
43184;SDS011;28803;52.308;19.096;2023-04-06T14:08:43;5.55;;;2.75;;
43184;SDS011;28803;52.308;19.096;2023-04-06T14:11:11;5.97;;;2.88;;
43184;SDS011;28803;52.308;19.096;2023-04-06T14:13:39;6.00;;;3.30;;
43184;SDS011;28803;52.308;19.096;2023-04-06T14:16:06;7.90;;;3.70;;
43184;SDS011;28803;52.308;19.096;2023-04-06T14:18:35;6.32;;;3.65;;
43184;SDS011;28803;52.308;19.096;2023-04-06T14:21:03;6.03;;;3.05;;
43184;SDS011;28803;52.308;19.096;2023-04-06T14:23:31;6.20;;;4.05;;
43184;SDS011;28803;52.308;19.096;2023-04-06T14:26:06;8.57;;;4.25;;
43184;SDS011;28803;52.308;19.096;2023-04-06T14:28:37;5.93;;;3.33;;
43184;SDS011;28803;52.308;19.096;2023-04-06T14:31:11;5.40;;;3.40;;
43184;SDS011;28803;52.308;19.096;2023-04-06T14:33:42;4.70;;;3.10;;
43184;SDS011;28803;52.308;19.096;2023-04-06T14:36:09;5.03;;;3.28;;
43184;SDS011;28803;52.308;19.096;2023-04-06T14:38:37;7.20;;;4.20;;
43184;SDS011;28803;52.308;19.096;2023-04-06T14:41:05;8.80;;;4.28;;